Time;durP1;ratioP1;P1;durP2;ratioP2;P2;SDS_P1;SDS_P2;PMS_P1;PMS_P2;Temp;Humidity;BMP_temperature;BMP_pressure;BME280_temperature;BME280_humidity;BME280_pressure;Samples;Min_cycle;Max_cycle;Signal;HPM_P1;HPM_P2
2022/09/07 04:20:11;;;;;;;8.30;4.10;;;25.00;99.90;;;;;;5130044;27;21006;-64
2022/09/07 04:22:38;;;;;;;5.93;4.67;;;25.10;99.90;;;;;;5129983;27;20861;-63
2022/09/07 04:25:05;;;;;;;6.20;3.33;;;25.20;99.90;;;;;;5111539;27;20497;-63
2022/09/07 04:27:32;;;;;;;5.17;3.70;;;25.20;99.90;;;;;;5109612;28;20872;-63
2022/09/07 04:29:59;;;;;;;4.50;2.77;;;25.30;99.90;;;;;;5109625;28;20849;-61
2022/09/07 04:32:26;;;;;;;2.47;2.27;;;25.30;99.90;;;;;;5116834;22;20583;-63
2022/09/07 04:34:53;;;;;;;6.23;5.60;;;25.30;99.90;;;;;;5068596;28;20510;-62
2022/09/07 04:37:21;;;;;;;4.17;2.63;;;25.40;99.90;;;;;;5068745;28;20439;-63
2022/09/07 04:39:48;;;;;;;2.30;2.20;;;25.40;99.90;;;;;;5068621;28;20475;-63
2022/09/07 04:42:15;;;;;;;6.40;3.03;;;25.40;99.90;;;;;;5068629;28;20559;-62
2022/09/07 04:44:42;;;;;;;2.67;2.47;;;25.40;99.90;;;;;;5068558;28;20522;-63
2022/09/07 04:47:09;;;;;;;3.10;2.57;;;25.40;99.90;;;;;;5068563;28;20534;-62
2022/09/07 04:49:35;;;;;;;3.20;3.00;;;25.40;99.90;;;;;;5068772;28;20523;-63
2022/09/07 04:52:03;;;;;;;7.93;4.37;;;25.40;99.90;;;;;;5068494;28;20509;-63
2022/09/07 04:54:31;;;;;;;4.73;3.27;;;25.40;99.90;;;;;;5068306;28;20533;-61
2022/09/07 04:56:58;;;;;;;3.10;2.90;;;25.40;99.90;;;;;;5068436;28;20479;-60
2022/09/07 04:59:25;;;;;;;3.37;2.97;;;25.40;99.90;;;;;;5068173;28;20483;-62
2022/09/07 05:01:52;;;;;;;2.90;2.40;;;25.40;99.90;;;;;;5068360;28;20900;-60
2022/09/07 05:04:18;;;;;;;3.50;2.50;;;25.40;99.90;;;;;;5068396;28;20980;-63
2022/09/07 05:06:45;;;;;;;2.77;2.57;;;25.40;99.90;;;;;;5068380;28;21017;-61
2022/09/07 05:09:12;;;;;;;3.30;3.00;;;25.40;99.90;;;;;;5068017;28;20857;-63
2022/09/07 05:11:40;;;;;;;3.17;2.77;;;25.40;99.90;;;;;;5067899;28;21016;-63
2022/09/07 05:14:07;;;;;;;3.03;2.70;;;25.40;99.90;;;;;;5067848;28;20443;-63
2022/09/07 05:16:34;;;;;;;2.97;2.77;;;25.50;99.90;;;;;;5067998;28;20479;-62
2022/09/07 05:19:03;;;;;;;2.83;2.63;;;25.40;99.90;;;;;;5067894;28;20511;-63
2022/09/07 05:21:32;;;;;;;2.77;2.57;;;25.40;99.90;;;;;;5067748;28;20479;-61
2022/09/07 05:24:00;;;;;;;3.27;3.07;;;25.40;99.90;;;;;;5067725;28;20878;-63
2022/09/07 05:26:28;;;;;;;3.63;3.20;;;25.50;99.90;;;;;;5067781;28;20526;-62
2022/09/07 05:29:01;;;;;;;2.87;2.73;;;25.40;99.90;;;;;;5067637;28;20519;-63
2022/09/07 05:31:28;;;;;;;3.53;2.70;;;25.40;99.90;;;;;;5054590;28;20454;-63
2022/09/07 05:33:57;;;;;;;2.80;2.60;;;25.40;99.90;;;;;;5054240;28;20997;-62
2022/09/07 05:36:25;;;;;;;4.30;3.20;;;25.50;99.90;;;;;;5054293;28;20448;-62
2022/09/07 05:38:52;;;;;;;2.90;2.70;;;25.40;99.90;;;;;;5054242;28;20894;-62
2022/09/07 05:41:21;;;;;;;3.20;3.00;;;25.50;99.90;;;;;;5054218;28;20483;-63
2022/09/07 05:43:49;;;;;;;3.40;3.20;;;25.50;99.90;;;;;;5054013;28;20877;-63
2022/09/07 05:46:18;;;;;;;3.03;2.70;;;25.50;99.90;;;;;;5054172;28;20539;-62
2022/09/07 05:48:45;;;;;;;2.60;2.40;;;25.50;99.90;;;;;;5054190;28;20969;-63
2022/09/07 05:51:13;;;;;;;3.20;3.00;;;25.50;99.90;;;;;;5054046;28;20543;-62
2022/09/07 05:53:43;;;;;;;4.63;2.77;;;25.50;99.90;;;;;;5053782;28;20551;-62
2022/09/07 05:56:10;;;;;;;2.70;2.50;;;25.50;99.90;;;;;;5054115;28;20861;-63
2022/09/07 05:58:37;;;;;;;3.73;3.53;;;25.50;99.90;;;;;;5053838;28;20910;-63
2022/09/07 06:01:06;;;;;;;3.60;3.30;;;25.40;99.90;;;;;;5053866;28;20480;-63
2022/09/07 06:03:36;;;;;;;3.17;2.30;;;25.50;99.90;;;;;;5053799;28;20560;-63
2022/09/07 06:06:04;;;;;;;3.20;2.70;;;25.50;99.90;;;;;;5053858;28;20568;-62
2022/09/07 06:08:32;;;;;;;3.00;2.80;;;25.50;99.90;;;;;;5053779;28;20535;-63
2022/09/07 06:11:04;;;;;;;3.00;2.70;;;25.50;99.90;;;;;;5053894;28;20554;-61
2022/09/07 06:13:31;;;;;;;2.60;2.40;;;25.50;99.90;;;;;;5053526;28;20547;-61
2022/09/07 06:16:00;;;;;;;3.37;2.87;;;25.50;99.90;;;;;;5053686;28;20527;-62
2022/09/07 06:18:30;;;;;;;3.00;2.70;;;25.50;99.90;;;;;;5053286;28;20531;-63
2022/09/07 06:21:02;;;;;;;4.03;3.73;;;25.50;99.90;;;;;;5053506;28;20444;-62
2022/09/07 06:23:30;;;;;;;2.80;2.63;;;25.50;99.90;;;;;;5053400;28;20551;-62
2022/09/07 06:25:57;;;;;;;3.00;2.80;;;25.40;99.90;;;;;;5053538;28;20824;-63
2022/09/07 06:28:28;;;;;;;4.10;2.97;;;25.40;99.90;;;;;;5053465;28;20538;-60
2022/09/07 06:30:59;;;;;;;3.90;3.67;;;25.50;99.90;;;;;;5053316;28;20455;-59
2022/09/07 06:33:26;;;;;;;3.33;3.03;;;25.50;99.90;;;;;;5053049;28;20559;-61
2022/09/07 06:35:59;;;;;;;3.07;2.87;;;25.50;99.90;;;;;;5053405;28;20487;-62
2022/09/07 06:38:29;;;;;;;2.67;2.47;;;25.40;99.90;;;;;;5053409;28;20871;-62
2022/09/07 06:41:00;;;;;;;3.00;2.80;;;25.40;99.90;;;;;;5053116;28;20523;-62
2022/09/07 06:43:27;;;;;;;3.43;3.00;;;25.50;99.90;;;;;;5052239;28;20551;-61
2022/09/07 06:45:54;;;;;;;2.63;2.43;;;25.50;99.90;;;;;;5053341;28;20543;-62
2022/09/07 06:48:21;;;;;;;3.17;2.13;;;25.40;99.90;;;;;;5053046;28;20682;-60
2022/09/07 06:50:56;;;;;;;3.23;3.03;;;25.50;99.90;;;;;;5052894;28;20519;-62
2022/09/07 06:53:24;;;;;;;3.90;2.23;;;25.40;99.90;;;;;;5052788;28;20475;-61
2022/09/07 06:55:51;;;;;;;2.27;2.17;;;25.40;99.90;;;;;;5053105;28;21145;-61
2022/09/07 06:58:18;;;;;;;2.00;1.90;;;25.40;99.90;;;;;;5052932;28;20476;-60
2022/09/07 07:00:45;;;;;;;2.60;2.37;;;25.40;99.90;;;;;;5052651;28;20570;-62
2022/09/07 07:03:12;;;;;;;2.23;2.13;;;25.40;99.90;;;;;;5052597;28;20547;-62
2022/09/07 07:05:39;;;;;;;2.40;2.30;;;25.40;99.90;;;;;;5052693;28;20531;-60
2022/09/07 07:08:06;;;;;;;2.20;2.10;;;25.40;99.90;;;;;;5052646;28;20476;-59
2022/09/07 07:10:38;;;;;;;2.83;2.70;;;25.40;99.90;;;;;;5052686;28;20528;-61
2022/09/07 07:13:05;;;;;;;3.00;2.80;;;25.40;99.90;;;;;;5052317;28;20465;-62
2022/09/07 07:15:32;;;;;;;2.73;2.20;;;25.40;99.90;;;;;;5052419;28;20548;-62
2022/09/07 07:17:59;;;;;;;3.03;2.70;;;25.40;99.90;;;;;;5052424;28;20531;-62
2022/09/07 07:20:26;;;;;;;4.80;3.10;;;25.40;99.90;;;;;;5052372;28;20566;-62
2022/09/07 07:22:53;;;;;;;2.80;2.60;;;25.40;99.90;;;;;;5052004;28;20905;-62
2022/09/07 07:25:21;;;;;;;2.90;2.70;;;25.30;99.90;;;;;;5052315;28;20543;-64
2022/09/07 07:27:49;;;;;;;3.20;2.50;;;25.40;99.90;;;;;;5052215;28;20526;-62
2022/09/07 07:30:18;;;;;;;2.80;2.60;;;25.40;99.90;;;;;;5052198;28;20480;-63
2022/09/07 07:32:45;;;;;;;3.80;2.63;;;25.40;99.90;;;;;;5051848;28;20918;-63
2022/09/07 07:35:13;;;;;;;2.77;2.57;;;25.40;99.90;;;;;;5052184;28;20881;-63
2022/09/07 07:37:40;;;;;;;2.57;2.37;;;25.40;99.90;;;;;;5052127;28;20479;-64
2022/09/07 07:40:10;;;;;;;2.73;2.50;;;25.40;99.90;;;;;;5051978;28;20491;-64
2022/09/07 07:42:38;;;;;;;3.23;3.03;;;25.40;99.90;;;;;;5051828;28;20555;-64
2022/09/07 07:45:08;;;;;;;3.20;2.97;;;25.40;99.90;;;;;;5051988;28;20474;-64
2022/09/07 07:47:35;;;;;;;4.30;2.33;;;25.30;99.90;;;;;;5052220;28;20527;-63
2022/09/07 07:50:03;;;;;;;3.07;2.33;;;25.40;99.90;;;;;;5051934;28;20532;-61
2022/09/07 07:52:33;;;;;;;3.50;3.20;;;25.40;99.90;;;;;;5051746;28;20471;-63
2022/09/07 07:54:59;;;;;;;3.87;3.67;;;25.30;99.90;;;;;;5051798;28;20452;-64
2022/09/07 07:57:26;;;;;;;3.87;3.27;;;25.30;99.90;;;;;;5051830;28;20535;-63
2022/09/07 07:59:53;;;;;;;3.00;2.80;;;25.30;99.90;;;;;;5051752;28;20574;-63
2022/09/07 08:02:22;;;;;;;2.00;1.90;;;25.20;99.90;;;;;;5051672;28;20472;-61
2022/09/07 08:04:49;;;;;;;1.90;1.80;;;25.20;99.90;;;;;;5051895;28;20527;-62
2022/09/07 08:07:17;;;;;;;3.40;3.13;;;25.30;99.90;;;;;;5051768;28;20506;-63
2022/09/07 08:09:45;;;;;;;2.30;2.10;;;25.30;99.90;;;;;;5051796;28;20444;-63
2022/09/07 08:12:14;;;;;;;2.30;1.93;;;25.20;99.90;;;;;;5051514;28;20503;-63
2022/09/07 08:14:41;;;;;;;2.10;1.83;;;25.20;99.90;;;;;;5051497;28;20505;-63
2022/09/07 08:17:09;;;;;;;1.90;1.80;;;25.20;99.90;;;;;;5051555;28;20535;-62
2022/09/07 08:19:37;;;;;;;2.43;2.23;;;25.20;99.90;;;;;;5051545;28;20570;-64
2022/09/07 08:22:04;;;;;;;6.80;2.80;;;25.20;99.90;;;;;;5051495;28;20839;-64
2022/09/07 08:24:32;;;;;;;2.20;2.00;;;25.10;99.90;;;;;;5051398;28;20454;-63
2022/09/07 08:26:59;;;;;;;3.03;1.70;;;25.10;99.90;;;;;;5051663;28;20514;-65
2022/09/07 08:29:26;;;;;;;3.80;3.53;;;25.00;99.90;;;;;;5051671;28;20548;-63
2022/09/07 08:31:52;;;;;;;2.13;2.03;;;25.10;99.90;;;;;;5051297;28;20567;-63
2022/09/07 08:34:20;;;;;;;1.70;1.60;;;25.10;99.90;;;;;;5051450;28;20543;-63
2022/09/07 08:36:49;;;;;;;2.00;1.80;;;25.10;99.90;;;;;;5051497;28;20447;-63
2022/09/07 08:39:15;;;;;;;2.43;1.87;;;25.10;99.90;;;;;;5051381;28;20961;-63
2022/09/07 08:41:55;;;;;;;1.53;1.53;;;25.00;99.90;;;;;;5051316;28;20848;-62
2022/09/07 08:44:25;;;;;;;1.50;1.40;;;25.00;99.90;;;;;;5051301;28;20444;-62
2022/09/07 08:46:57;;;;;;;1.47;1.47;;;25.00;99.90;;;;;;5051288;28;20942;-64
2022/09/07 08:49:30;;;;;;;1.30;1.20;;;25.00;99.90;;;;;;5051324;28;20458;-63
2022/09/07 08:52:01;;;;;;;1.53;1.43;;;25.10;99.90;;;;;;5051276;28;20475;-63
2022/09/07 08:54:29;;;;;;;1.50;1.40;;;25.10;99.90;;;;;;5050971;28;20455;-64
2022/09/07 08:57:01;;;;;;;1.83;1.20;;;25.10;99.90;;;;;;5051226;28;20448;-62
2022/09/07 08:59:38;;;;;;;1.50;1.50;;;25.10;99.90;;;;;;5051166;28;20444;-62
2022/09/07 09:02:13;;;;;;;2.20;1.50;;;25.20;99.90;;;;;;5051124;28;20460;-62
2022/09/07 09:04:41;;;;;;;4.37;1.50;;;25.10;99.90;;;;;;5051309;28;20447;-62
2022/09/07 09:07:18;;;;;;;1.17;1.17;;;25.10;99.90;;;;;;5054960;28;20878;-60
2022/09/07 09:10:12;;;;;;;1.40;1.30;;;25.10;99.90;;;;;;5054888;28;20489;-61
2022/09/07 09:13:00;;;;;;;1.10;1.10;;;25.10;99.90;;;;;;5054856;28;20490;-62
2022/09/07 09:15:35;;;;;;;1.00;1.00;;;25.20;99.90;;;;;;5054800;28;20535;-62
2022/09/07 09:18:15;;;;;;;2.53;1.57;;;25.10;99.90;;;;;;5054728;28;20458;-59
2022/09/07 09:20:48;;;;;;;1.20;1.10;;;25.10;99.90;;;;;;5054650;28;20483;-58
2022/09/07 09:23:18;;;;;;;2.23;2.03;;;25.10;99.90;;;;;;5054551;28;20531;-58
2022/09/07 09:25:51;;;;;;;1.27;1.23;;;25.10;99.90;;;;;;5054886;28;20935;-60
2022/09/07 09:28:18;;;;;;;1.23;1.20;;;25.10;99.90;;;;;;5054551;28;20448;-62
2022/09/07 09:30:46;;;;;;;1.50;1.40;;;25.10;99.90;;;;;;5054407;28;20530;-62
2022/09/07 09:33:17;;;;;;;2.13;1.20;;;25.10;99.90;;;;;;5054055;28;20476;-60
2022/09/07 09:35:45;;;;;;;2.00;1.33;;;25.10;99.90;;;;;;5054430;28;20481;-61
2022/09/07 09:38:30;;;;;;;1.63;1.30;;;25.20;99.90;;;;;;5054309;28;20466;-62
2022/09/07 09:41:00;;;;;;;1.17;1.17;;;25.20;99.90;;;;;;5054234;28;21027;-60
2022/09/07 09:43:35;;;;;;;1.20;1.20;;;25.20;99.90;;;;;;5054036;28;20460;-59
2022/09/07 09:46:02;;;;;;;1.20;1.20;;;25.20;99.90;;;;;;5054209;28;20451;-62
2022/09/07 09:48:33;;;;;;;1.93;1.40;;;25.20;99.90;;;;;;5054147;28;20444;-59
2022/09/07 09:51:02;;;;;;;1.80;1.30;;;25.20;99.90;;;;;;5054319;28;20445;-61
2022/09/07 09:53:34;;;;;;;1.93;1.53;;;25.20;99.90;;;;;;5053847;28;20984;-60
2022/09/07 09:56:03;;;;;;;1.20;1.20;;;25.10;99.90;;;;;;5054007;28;20538;-61
2022/09/07 09:58:32;;;;;;;1.57;1.50;;;25.20;99.90;;;;;;5053986;28;20531;-62
2022/09/07 10:01:01;;;;;;;1.20;1.10;;;25.20;99.90;;;;;;5053929;28;20486;-60
2022/09/07 10:03:29;;;;;;;1.33;1.33;;;25.20;99.90;;;;;;5053967;28;20460;-61
2022/09/07 10:05:57;;;;;;;2.27;2.10;;;25.20;99.90;;;;;;5053965;28;20960;-61
2022/09/07 10:08:25;;;;;;;1.63;1.63;;;25.30;99.90;;;;;;5053877;28;20454;-59
2022/09/07 10:10:56;;;;;;;1.23;1.00;;;25.20;99.90;;;;;;5053688;28;20450;-60
2022/09/07 10:13:27;;;;;;;1.73;1.73;;;25.30;99.90;;;;;;5053561;28;20474;-62
2022/09/07 10:15:55;;;;;;;2.60;1.70;;;25.30;99.90;;;;;;5053550;28;20446;-61
2022/09/07 10:18:32;;;;;;;1.47;1.37;;;25.30;99.90;;;;;;5053624;28;20858;-62
2022/09/07 10:21:13;;;;;;;1.30;1.20;;;25.30;99.90;;;;;;5053475;28;20476;-62
2022/09/07 10:23:40;;;;;;;1.73;1.30;;;25.30;99.90;;;;;;5053336;28;20487;-61
2022/09/07 10:26:28;;;;;;;1.77;1.67;;;25.30;99.90;;;;;;5053588;28;20539;-59
2022/09/07 10:29:16;;;;;;;1.47;1.30;;;25.30;99.90;;;;;;5053348;28;20440;-63
2022/09/07 10:34:18;;;;;;;1.53;1.40;;;25.30;99.90;;;;;;5113902;22;20954;-62
2022/09/07 10:36:53;;;;;;;1.83;1.40;;;25.30;99.90;;;;;;5093477;28;20437;-62
2022/09/07 10:39:26;;;;;;;2.00;1.80;;;25.30;99.90;;;;;;5093401;28;21014;-62
2022/09/07 10:42:05;;;;;;;1.47;1.37;;;25.30;99.90;;;;;;5093295;28;20482;-62
2022/09/07 10:44:48;;;;;;;3.00;1.17;;;25.30;99.90;;;;;;5093162;28;20809;-62
2022/09/07 10:47:26;;;;;;;1.30;1.30;;;25.40;99.90;;;;;;5093326;28;20453;-62
2022/09/07 10:49:57;;;;;;;1.00;1.00;;;25.40;99.90;;;;;;5093261;28;20446;-62
2022/09/07 10:52:28;;;;;;;2.63;1.60;;;25.40;99.90;;;;;;5092863;28;20826;-62
2022/09/07 10:55:05;;;;;;;1.10;1.10;;;25.40;99.90;;;;;;5093151;28;20964;-62
2022/09/07 10:57:45;;;;;;;1.53;1.10;;;25.40;99.90;;;;;;5093102;28;20442;-62
2022/09/07 11:00:15;;;;;;;1.43;1.33;;;25.40;99.90;;;;;;5092845;28;20503;-62
2022/09/07 11:03:05;;;;;;;1.70;1.60;;;25.40;99.90;;;;;;5092898;28;20577;-62
2022/09/07 11:05:39;;;;;;;2.77;1.90;;;25.40;99.90;;;;;;5092834;28;20810;-62
2022/09/07 11:08:18;;;;;;;1.97;1.37;;;25.40;99.90;;;;;;5092945;28;20442;-62
2022/09/07 11:10:52;;;;;;;3.60;1.20;;;25.40;99.90;;;;;;5092922;28;20445;-61
2022/09/07 11:13:25;;;;;;;1.77;1.67;;;25.40;99.90;;;;;;5092491;28;20463;-62
2022/09/07 11:15:57;;;;;;;1.63;1.53;;;25.40;99.90;;;;;;5092767;28;20449;-62
2022/09/07 11:18:27;;;;;;;1.80;1.67;;;25.40;99.90;;;;;;5092764;28;21067;-62
2022/09/07 11:20:57;;;;;;;1.70;1.60;;;25.40;99.90;;;;;;5092606;28;20478;-62
2022/09/07 11:23:28;;;;;;;2.37;1.80;;;25.40;99.90;;;;;;5092354;28;20470;-61
2022/09/07 11:26:03;;;;;;;2.30;1.80;;;25.40;99.90;;;;;;5092705;28;20533;-61
2022/09/07 11:28:41;;;;;;;2.40;1.93;;;25.40;99.90;;;;;;5091936;28;20446;-62
2022/09/07 11:31:18;;;;;;;3.00;2.40;;;25.40;99.90;;;;;;5092522;28;20444;-62
2022/09/07 11:33:58;;;;;;;1.83;1.73;;;25.40;99.90;;;;;;5092089;28;20569;-62
2022/09/07 11:36:28;;;;;;;2.03;1.93;;;25.50;99.90;;;;;;5092377;28;20454;-61
2022/09/07 11:39:00;;;;;;;2.77;1.87;;;25.50;99.90;;;;;;5092371;28;20456;-62
2022/09/07 11:41:29;;;;;;;1.97;1.80;;;25.50;99.90;;;;;;5092163;28;20488;-62
2022/09/07 11:44:04;;;;;;;2.10;2.00;;;25.50;99.90;;;;;;5091997;28;20477;-61
2022/09/07 11:46:41;;;;;;;2.33;2.23;;;25.50;99.90;;;;;;5092164;28;20540;-62
2022/09/07 11:49:15;;;;;;;2.20;2.10;;;25.50;99.90;;;;;;5092202;28;20871;-61
2022/09/07 11:51:48;;;;;;;2.33;2.23;;;25.50;99.90;;;;;;5092184;28;20440;-61
2022/09/07 11:54:36;;;;;;;4.53;2.00;;;25.50;99.90;;;;;;5091935;28;20449;-62
2022/09/07 11:57:40;;;;;;;2.13;1.93;;;25.50;99.90;;;;;;5092049;28;20461;-62
2022/09/07 12:00:13;;;;;;;5.03;2.47;;;25.50;99.90;;;;;;5076398;28;20544;-61
2022/09/07 12:03:00;;;;;;;2.30;2.20;;;25.50;99.90;;;;;;5091834;28;20541;-62
2022/09/07 12:05:54;;;;;;;2.13;1.90;;;25.50;99.90;;;;;;5091819;28;20449;-61
2022/09/07 12:08:33;;;;;;;2.20;2.10;;;25.50;99.90;;;;;;5091842;28;20442;-62
2022/09/07 12:11:16;;;;;;;2.30;2.10;;;25.50;99.90;;;;;;5091864;28;20442;-62
2022/09/07 12:14:08;;;;;;;2.47;2.30;;;25.50;99.90;;;;;;5091568;28;20894;-62
2022/09/07 12:17:05;;;;;;;2.40;2.30;;;25.60;99.90;;;;;;5091795;28;20522;-62
2022/09/07 12:19:32;;;;;;;3.93;1.90;;;25.60;99.90;;;;;;5086499;28;20454;-62
2022/09/07 12:21:59;;;;;;;2.10;2.00;;;25.60;99.90;;;;;;5091632;28;20815;-62
2022/09/07 12:24:40;;;;;;;2.40;2.20;;;25.60;99.90;;;;;;5091524;28;20552;-62
2022/09/07 12:27:10;;;;;;;1.83;1.73;;;25.60;99.90;;;;;;5091616;28;20517;-63
2022/09/07 12:29:37;;;;;;;1.90;1.60;;;25.60;99.90;;;;;;5091754;28;20885;-62
2022/09/07 12:32:09;;;;;;;2.40;1.30;;;25.70;99.90;;;;;;5091511;28;20440;-63
2022/09/07 12:34:59;;;;;;;1.50;1.50;;;25.70;99.90;;;;;;5091801;28;20938;-62
2022/09/07 12:37:38;;;;;;;2.30;2.07;;;25.70;99.90;;;;;;5091911;28;20449;-63
2022/09/07 12:40:59;;;;;;;1.40;1.40;;;25.70;99.90;;;;;;5092465;28;20469;-62
2022/09/07 12:43:35;;;;;;;1.43;1.43;;;25.70;99.90;;;;;;5095466;28;20462;-61
2022/09/07 12:46:02;;;;;;;2.77;2.20;;;25.70;99.90;;;;;;5095782;28;20446;-62
2022/09/07 12:48:47;;;;;;;2.40;1.33;;;25.70;99.90;;;;;;5095552;28;20449;-58
2022/09/07 12:51:26;;;;;;;1.80;1.70;;;25.70;99.90;;;;;;5095740;28;20810;-60
2022/09/07 12:54:02;;;;;;;1.67;1.57;;;25.70;99.90;;;;;;5095389;28;20639;-59
2022/09/07 12:56:42;;;;;;;1.73;1.63;;;25.70;99.90;;;;;;5095354;28;20446;-62
2022/09/07 12:59:32;;;;;;;1.37;1.27;;;25.70;99.90;;;;;;5095335;28;20446;-62
2022/09/07 13:02:12;;;;;;;1.53;1.10;;;25.70;99.90;;;;;;5095190;28;20513;-62
2022/09/07 13:05:01;;;;;;;2.13;1.30;;;25.70;99.90;;;;;;5095122;28;20542;-61
2022/09/07 13:07:44;;;;;;;1.67;1.57;;;25.70;99.90;;;;;;5095273;28;20470;-55
2022/09/07 13:10:27;;;;;;;1.73;1.63;;;25.70;99.90;;;;;;5095156;28;20529;-58
2022/09/07 13:13:01;;;;;;;1.37;1.27;;;25.70;99.90;;;;;;5094900;28;20532;-57
2022/09/07 13:15:34;;;;;;;2.23;1.60;;;25.70;99.90;;;;;;5095044;28;20446;-57
2022/09/07 13:18:02;;;;;;;1.50;1.40;;;25.80;99.90;;;;;;5095090;28;20982;-58
2022/09/07 13:20:31;;;;;;;1.80;1.30;;;25.80;99.90;;;;;;5094936;28;20446;-59
2022/09/07 13:23:21;;;;;;;1.50;1.50;;;25.80;99.90;;;;;;5094649;28;20477;-60
2022/09/07 13:25:51;;;;;;;1.27;1.10;;;25.80;99.90;;;;;;5094727;28;20438;-58
2022/09/07 13:28:25;;;;;;;1.27;1.27;;;25.80;99.90;;;;;;5094721;28;20442;-58
2022/09/07 13:31:04;;;;;;;5.70;1.83;;;25.80;99.30;;;;;;5094730;28;20430;-58
2022/09/07 13:33:49;;;;;;;1.70;1.60;;;25.80;99.10;;;;;;5094243;28;20470;-60
2022/09/07 13:36:37;;;;;;;1.67;1.47;;;25.90;99.30;;;;;;5094626;28;20984;-59
2022/09/07 13:39:10;;;;;;;1.50;1.40;;;25.80;98.40;;;;;;5094590;28;20442;-57
2022/09/07 13:41:41;;;;;;;1.50;1.40;;;25.90;98.30;;;;;;5094417;28;20513;-58
2022/09/07 13:44:20;;;;;;;1.53;1.40;;;25.90;98.30;;;;;;5094210;28;20800;-60
2022/09/07 13:46:59;;;;;;;1.30;1.20;;;25.90;98.00;;;;;;5094574;28;20438;-59
2022/09/07 13:49:47;;;;;;;1.43;1.20;;;25.90;97.70;;;;;;5094396;28;20452;-60
2022/09/07 13:52:19;;;;;;;1.57;1.03;;;25.90;97.40;;;;;;5093980;28;20460;-59
2022/09/07 13:55:01;;;;;;;0.97;0.93;;;25.90;96.80;;;;;;5094082;28;20442;-59
2022/09/07 13:57:32;;;;;;;1.00;1.00;;;25.90;96.20;;;;;;5094201;28;20839;-60
2022/09/07 13:59:59;;;;;;;3.03;1.60;;;26.00;95.60;;;;;;5092609;28;20438;-57
2022/09/07 14:02:30;;;;;;;1.30;1.23;;;26.00;96.00;;;;;;5080564;28;20583;-64
2022/09/07 14:05:01;;;;;;;2.50;1.50;;;26.00;97.40;;;;;;5094079;28;20442;-62
2022/09/07 14:07:31;;;;;;;1.43;1.27;;;26.00;96.90;;;;;;5094189;28;20446;-62
2022/09/07 14:10:07;;;;;;;1.43;1.33;;;26.00;95.10;;;;;;5094084;28;20442;-63
2022/09/07 14:12:43;;;;;;;2.53;1.20;;;26.00;93.10;;;;;;5093700;28;20458;-59
2022/09/07 14:15:17;;;;;;;2.97;1.20;;;26.10;93.10;;;;;;5093536;28;20442;-55
2022/09/07 14:17:45;;;;;;;1.53;1.43;;;26.00;93.50;;;;;;5093247;28;20453;-62
2022/09/07 14:20:15;;;;;;;3.43;1.50;;;26.10;95.20;;;;;;5093941;28;20446;-62
2022/09/07 14:22:44;;;;;;;2.70;1.13;;;26.10;94.20;;;;;;5102831;28;20478;-61
2022/09/07 14:25:16;;;;;;;1.70;1.60;;;26.10;93.40;;;;;;5092014;28;20449;-64
2022/09/07 14:27:46;;;;;;;1.10;1.10;;;26.10;92.60;;;;;;5093599;28;20452;-62
2022/09/07 14:30:25;;;;;;;2.40;1.33;;;26.10;93.40;;;;;;5093662;28;20442;-62
2022/09/07 14:32:54;;;;;;;4.10;1.23;;;26.10;93.10;;;;;;5093469;28;20474;-58
2022/09/07 14:35:23;;;;;;;2.07;1.07;;;26.10;92.30;;;;;;5093526;28;20453;-61
2022/09/07 14:37:51;;;;;;;0.87;0.87;;;26.10;91.60;;;;;;5093254;28;20554;-65
2022/09/07 14:40:21;;;;;;;3.53;1.40;;;26.20;91.70;;;;;;5093579;28;20438;-62
2022/09/07 14:42:48;;;;;;;1.40;1.27;;;26.20;91.50;;;;;;5094446;28;20485;-61
2022/09/07 14:45:30;;;;;;;1.97;1.30;;;26.20;92.00;;;;;;5093155;28;20442;-58
2022/09/07 14:47:57;;;;;;;0.90;0.90;;;26.20;91.50;;;;;;5093311;28;20453;-60
2022/09/07 14:50:29;;;;;;;1.17;1.10;;;26.20;92.00;;;;;;5093274;28;20939;-60
2022/09/07 14:52:57;;;;;;;1.63;1.17;;;26.30;91.50;;;;;;5093080;28;20464;-61
2022/09/07 14:55:29;;;;;;;1.17;1.17;;;26.30;90.70;;;;;;5092798;28;20532;-60
2022/09/07 14:58:21;;;;;;;0.90;0.90;;;26.30;90.50;;;;;;5093134;28;20542;-60
2022/09/07 15:00:49;;;;;;;2.03;1.47;;;26.30;89.80;;;;;;5093282;28;20928;-61
2022/09/07 15:03:31;;;;;;;1.10;1.00;;;26.30;89.20;;;;;;5091866;28;20488;-59
2022/09/07 15:05:59;;;;;;;4.70;1.47;;;26.30;90.00;;;;;;5092884;28;20938;-60
2022/09/07 15:21:46;;;;;;;4.67;1.70;;;26.30;89.90;;;;;;5163926;27;20629;-61
2022/09/07 15:24:13;;;;;;;1.33;1.23;;;26.60;86.00;;;;;;5125309;27;20443;-58
2022/09/07 15:26:41;;;;;;;3.07;1.60;;;26.60;85.30;;;;;;5109217;28;20448;-60
2022/09/07 15:29:09;;;;;;;1.40;1.30;;;26.60;85.60;;;;;;5109021;28;20446;-55
2022/09/07 15:31:37;;;;;;;1.83;1.33;;;26.50;85.70;;;;;;5108851;28;20462;-59
2022/09/07 15:34:08;;;;;;;1.10;1.10;;;26.50;85.80;;;;;;5121475;28;20511;-57
2022/09/07 15:36:36;;;;;;;2.20;1.40;;;26.50;85.50;;;;;;5129672;28;20443;-54
2022/09/07 15:39:05;;;;;;;1.67;1.57;;;26.50;85.60;;;;;;5129755;28;21010;-57
2022/09/07 15:41:32;;;;;;;1.20;1.10;;;26.50;85.10;;;;;;5129081;28;20464;-57
2022/09/07 15:43:59;;;;;;;2.93;1.33;;;26.50;84.70;;;;;;5128946;28;20532;-59
2022/09/07 15:46:26;;;;;;;1.83;1.30;;;26.50;83.80;;;;;;5129346;28;20447;-60
2022/09/07 15:48:54;;;;;;;1.43;1.33;;;26.50;86.20;;;;;;5129591;28;20449;-53
2022/09/07 15:51:22;;;;;;;1.33;1.00;;;26.50;84.30;;;;;;5121718;28;20473;-58
2022/09/07 15:53:49;;;;;;;1.67;1.57;;;26.50;85.60;;;;;;5108814;28;20533;-53
2022/09/07 15:56:17;;;;;;;2.57;1.10;;;26.50;85.70;;;;;;5108601;28;20448;-57
2022/09/07 15:58:44;;;;;;;1.90;1.80;;;26.50;85.50;;;;;;5108611;28;20484;-55
2022/09/07 16:01:13;;;;;;;1.40;1.30;;;26.50;85.60;;;;;;5113333;28;20547;-54
2022/09/07 16:03:40;;;;;;;2.20;1.23;;;26.50;85.30;;;;;;5129002;28;20444;-60
2022/09/07 16:06:11;;;;;;;1.50;1.40;;;26.50;84.50;;;;;;5128993;28;20464;-58
2022/09/07 16:08:38;;;;;;;2.20;1.40;;;26.50;85.60;;;;;;5128999;28;20440;-60
2022/09/07 16:11:19;;;;;;;1.60;1.50;;;26.50;86.00;;;;;;5126603;28;21068;-61
2022/09/07 16:13:47;;;;;;;1.47;1.20;;;26.50;86.20;;;;;;5128917;28;20501;-63
2022/09/07 16:16:13;;;;;;;5.03;1.20;;;26.50;85.50;;;;;;5128810;28;20942;-63
2022/09/07 16:18:40;;;;;;;2.20;1.23;;;26.50;84.00;;;;;;5128815;28;20536;-63
2022/09/07 16:21:09;;;;;;;4.10;1.30;;;26.50;83.30;;;;;;5026436;28;20556;-64
2022/09/07 16:23:36;;;;;;;1.10;1.10;;;26.50;85.20;;;;;;4991736;28;20558;-61
2022/09/07 16:26:07;;;;;;;1.43;1.33;;;26.50;85.70;;;;;;4991980;28;20878;-67
2022/09/07 16:28:37;;;;;;;3.30;1.20;;;26.50;86.00;;;;;;4991973;28;20443;-62
2022/09/07 16:31:06;;;;;;;1.20;1.20;;;26.50;86.30;;;;;;5007461;28;21066;-61
2022/09/07 16:33:34;;;;;;;1.50;1.30;;;26.50;84.70;;;;;;5011325;28;20790;-62
2022/09/07 16:36:02;;;;;;;3.10;1.30;;;26.50;83.50;;;;;;5011316;28;20450;-63
2022/09/07 16:38:30;;;;;;;0.93;0.90;;;26.60;84.30;;;;;;5011091;28;20442;-65
2022/09/07 16:40:57;;;;;;;1.47;1.40;;;26.60;84.50;;;;;;4995992;28;20449;-65
2022/09/07 16:43:25;;;;;;;1.90;1.50;;;26.60;84.90;;;;;;5010437;28;20486;-66
2022/09/07 16:46:02;;;;;;;1.40;1.10;;;26.50;84.10;;;;;;5011061;28;20446;-65
2022/09/07 16:48:31;;;;;;;1.30;1.17;;;26.60;82.40;;;;;;5011232;28;20454;-59
2022/09/07 16:50:58;;;;;;;1.83;1.23;;;26.50;81.50;;;;;;4995813;28;20486;-67
2022/09/07 16:53:24;;;;;;;2.13;1.23;;;26.50;82.40;;;;;;4991370;28;20945;-64
2022/09/07 16:55:51;;;;;;;2.87;1.60;;;26.60;82.40;;;;;;4998126;28;21009;-65
2022/09/07 16:58:18;;;;;;;1.70;1.60;;;26.60;82.20;;;;;;5010951;28;20481;-65
2022/09/07 17:00:45;;;;;;;1.43;1.20;;;26.60;82.40;;;;;;4997786;28;20848;-61
2022/09/07 17:03:13;;;;;;;1.73;1.03;;;26.60;83.70;;;;;;4991552;28;20483;-58
2022/09/07 17:05:40;;;;;;;1.40;1.10;;;26.60;83.60;;;;;;4991986;28;20535;-60
2022/09/07 17:08:07;;;;;;;2.53;2.33;;;26.60;83.30;;;;;;4993862;28;20203;-57
2022/09/07 17:10:34;;;;;;;2.77;1.17;;;26.60;82.30;;;;;;5003684;28;20568;-53
2022/09/07 17:13:01;;;;;;;2.80;2.60;;;26.60;81.90;;;;;;5012498;28;20466;-57
2022/09/07 17:15:28;;;;;;;2.40;1.80;;;26.60;83.00;;;;;;5011738;28;20451;-55
2022/09/07 17:17:54;;;;;;;1.73;1.63;;;26.60;83.00;;;;;;5011628;28;20853;-57
2022/09/07 17:20:23;;;;;;;1.50;1.40;;;26.60;82.40;;;;;;5002674;28;20542;-63
2022/09/07 17:22:51;;;;;;;1.20;1.17;;;26.60;82.00;;;;;;4991129;28;20478;-58
2022/09/07 17:25:18;;;;;;;1.77;1.70;;;26.60;82.80;;;;;;4991237;28;20447;-57
2022/09/07 17:27:45;;;;;;;1.60;1.10;;;26.60;83.40;;;;;;4992472;28;20538;-56
2022/09/07 17:30:13;;;;;;;2.30;1.90;;;26.60;83.50;;;;;;5000908;28;20520;-63
2022/09/07 17:32:40;;;;;;;1.07;0.97;;;26.60;83.50;;;;;;5010913;28;21190;-52
2022/09/07 17:35:08;;;;;;;1.23;1.13;;;26.60;83.50;;;;;;5011324;28;20489;-56
2022/09/07 17:37:36;;;;;;;1.67;1.43;;;26.60;83.50;;;;;;5010484;28;20932;-56
2022/09/07 17:40:05;;;;;;;1.23;1.10;;;26.60;82.80;;;;;;5004480;28;20541;-63
2022/09/07 17:42:31;;;;;;;6.47;1.30;;;26.60;83.20;;;;;;4990951;28;20503;-66
2022/09/07 17:44:58;;;;;;;1.10;1.00;;;26.60;83.50;;;;;;4990635;28;20490;-65